Time;durP1;ratioP1;P1;durP2;ratioP2;P2;SDS_P1;SDS_P2;PMS_P1;PMS_P2;Temp;Humidity;BMP_temperature;BMP_pressure;BME280_temperature;BME280_humidity;BME280_pressure;Samples;Min_cycle;Max_cycle;Signal;HPM_P1;HPM_P2
2022/02/09 00:00:56;;;;;;;3.95;1.65;;;;;;;8.27;72.08;101329.63;5070616;28;20020;-69
2022/02/09 00:03:24;;;;;;;2.28;1.48;;;;;;;8.25;71.84;101326.19;5067281;28;20478;-70
2022/02/09 00:06:01;;;;;;;4.65;1.40;;;;;;;8.29;72.14;101328.56;5068980;28;20097;-71
2022/02/09 00:08:26;;;;;;;2.65;1.50;;;;;;;8.33;72.20;101315.88;5068165;28;20025;-69
2022/02/09 00:10:58;;;;;;;2.60;1.45;;;;;;;8.33;72.35;101329.25;5069477;28;20047;-68
2022/02/09 00:16:18;;;;;;;2.40;1.35;;;;;;;8.36;72.65;101327.25;5068953;28;20035;-68
2022/02/09 00:18:55;;;;;;;2.03;1.40;;;;;;;8.27;72.75;101332.31;5069210;28;20131;-67
2022/02/09 00:21:50;;;;;;;4.43;1.50;;;;;;;8.07;73.72;101305.94;5066277;28;20033;-71
2022/02/09 00:24:34;;;;;;;2.60;1.50;;;;;;;8.12;74.26;101325.19;5069663;28;20078;-70
2022/02/09 00:35:18;;;;;;;2.42;1.63;;;;;;;8.04;77.40;101330.16;5069356;28;20028;-71
2022/02/09 00:43:40;;;;;;;4.13;1.60;;;;;;;7.98;79.23;101343.88;5069679;28;20044;-69
2022/02/09 01:56:33;;;;;;;4.15;2.30;;;;;;;8.14;80.45;101339.31;5067616;28;20107;-68
2022/02/09 01:58:58;;;;;;;3.88;2.38;;;;;;;7.93;81.04;101329.97;5068000;28;20029;-68
2022/02/09 02:01:25;;;;;;;3.17;2.10;;;;;;;7.95;81.13;101342.28;5066613;28;20153;-68
2022/02/09 02:03:51;;;;;;;5.03;2.10;;;;;;;8.10;80.45;101343.16;5067829;28;20036;-68
2022/02/09 02:06:18;;;;;;;2.20;1.95;;;;;;;8.07;79.94;101343.34;5068041;28;20112;-67
2022/02/09 02:08:45;;;;;;;2.60;1.90;;;;;;;8.04;80.16;101347.06;5068012;28;20026;-67
2022/02/09 02:11:57;;;;;;;4.38;2.30;;;;;;;7.96;80.64;101351.16;5067863;28;20086;-68
2022/02/09 02:17:00;;;;;;;3.22;2.28;;;;;;;8.02;79.77;101337.41;5067786;28;20082;-68
2022/02/09 03:09:23;;;;;;;3.70;2.45;;;;;;;7.86;80.57;101374.00;5071135;28;20035;-71
2022/02/09 03:12:04;;;;;;;3.95;2.42;;;;;;;7.85;80.68;101364.28;5070331;28;20032;-71
2022/02/09 03:14:44;;;;;;;4.03;2.20;;;;;;;8.02;79.36;101362.31;5071112;28;20028;-71
2022/02/09 03:17:15;;;;;;;6.35;2.60;;;;;;;7.97;79.94;101366.22;5070349;28;20029;-71
2022/02/09 03:43:45;;;;;;;4.10;2.40;;;;;;;7.87;80.19;101389.09;5069463;28;20098;-68
2022/02/09 03:49:04;;;;;;;6.80;2.67;;;;;;;7.89;79.71;101392.50;5070294;28;20111;-71
2022/02/09 03:57:21;;;;;;;5.47;2.20;;;;;;;7.96;79.63;101391.22;5070345;28;20107;-69
2022/02/09 03:59:15;;;;;;;4.93;2.35;;;;;;;7.94;80.01;101393.13;5066091;28;20044;-70
2022/02/09 04:01:42;;;;;;;4.90;2.33;;;;;;;7.92;79.46;101381.66;5068150;28;20032;-71
2022/02/09 04:04:08;;;;;;;6.20;2.67;;;;;;;7.88;79.55;101369.44;5069877;28;20552;-71
2022/02/09 04:06:36;;;;;;;5.30;2.50;;;;;;;7.93;79.16;101375.38;5069262;28;20039;-71
2022/02/09 04:09:06;;;;;;;4.07;2.50;;;;;;;7.88;79.67;101385.47;5067892;28;20025;-70
2022/02/09 04:14:11;;;;;;;3.47;2.33;;;;;;;7.89;78.76;101365.81;5069066;28;20089;-71
2022/02/09 04:19:27;;;;;;;4.22;2.42;;;;;;;7.98;79.14;101381.28;5069132;28;20056;-70
2022/02/09 04:56:13;;;;;;;6.20;3.17;;;;;;;7.92;79.85;101400.34;5055615;28;20793;-71
2022/02/09 04:59:02;;;;;;;5.28;2.15;;;;;;;7.85;80.44;101397.19;5068585;28;20028;-71
2022/02/09 05:18:09;;;;;;;10.90;2.00;;;;;;;8.06;78.55;101417.28;5069834;28;20067;-71
2022/02/09 05:28:04;;;;;;;3.17;2.00;;;;;;;7.90;78.78;101410.28;5068810;28;20115;-70
2022/02/09 05:30:30;;;;;;;9.80;2.63;;;;;;;7.83;79.28;101414.28;5068318;28;20071;-69
2022/02/09 05:32:56;;;;;;;3.22;1.85;;;;;;;7.86;78.91;101414.94;5059986;28;20063;-68
2022/02/09 05:35:22;;;;;;;3.38;2.08;;;;;;;7.87;79.19;101421.97;5067293;28;20120;-69
2022/02/09 05:37:52;;;;;;;3.85;2.05;;;;;;;7.80;79.45;101420.63;5066408;28;20094;-68
2022/02/09 05:40:18;;;;;;;3.97;2.08;;;;;;;7.63;79.90;101417.22;5067384;28;20047;-68
2022/02/09 05:42:43;;;;;;;6.10;2.65;;;;;;;7.78;78.71;101408.31;5066700;28;20028;-68
2022/02/09 05:45:11;;;;;;;5.30;2.15;;;;;;;7.83;79.30;101424.97;5066072;28;20154;-68
2022/02/09 05:58:11;;;;;;;4.43;2.15;;;;;;;7.75;79.44;101437.88;5066495;28;20056;-67
2022/02/09 06:00:37;;;;;;;4.18;2.00;;;;;;;7.81;79.85;101448.22;5064531;28;20028;-67
2022/02/09 06:03:02;;;;;;;4.55;2.10;;;;;;;7.80;79.31;101427.81;5065829;28;20029;-67
2022/02/09 06:05:31;;;;;;;4.93;2.00;;;;;;;7.75;79.89;101446.75;5066377;28;20034;-68
2022/02/09 06:07:56;;;;;;;4.93;2.13;;;;;;;7.77;80.35;101452.00;5068301;28;20467;-68
2022/02/09 06:10:27;;;;;;;4.45;2.40;;;;;;;7.83;79.71;101451.66;5070252;28;20101;-68
2022/02/09 06:13:21;;;;;;;4.55;2.80;;;;;;;7.69;80.91;101451.59;5071086;28;20032;-71
2022/02/09 06:20:57;;;;;;;3.33;2.20;;;;;;;7.68;81.05;101449.88;5069828;28;20074;-71
2022/02/09 06:23:26;;;;;;;7.40;2.65;;;;;;;7.68;80.78;101436.53;5071064;28;20037;-70
2022/02/09 06:25:52;;;;;;;4.57;2.55;;;;;;;7.80;80.73;101451.84;5068899;28;20056;-69
2022/02/09 06:28:17;;;;;;;7.05;2.65;;;;;;;7.75;80.46;101436.09;5068823;28;20180;-71
2022/02/09 06:30:42;;;;;;;7.80;3.33;;;;;;;7.83;80.22;101454.34;5070889;28;20457;-71
2022/02/09 06:33:08;;;;;;;6.40;2.13;;;;;;;7.81;81.13;101449.09;5070467;28;20078;-71
2022/02/09 06:35:34;;;;;;;4.55;2.58;;;;;;;7.81;81.16;101454.41;5069900;28;20040;-70
2022/02/09 06:38:01;;;;;;;6.95;2.38;;;;;;;7.69;80.82;101439.09;5070270;28;20036;-70
2022/02/09 06:40:27;;;;;;;8.30;3.05;;;;;;;7.86;80.84;101464.81;5069764;28;20445;-70
2022/02/09 06:42:52;;;;;;;3.75;2.70;;;;;;;7.72;81.82;101464.75;5071207;28;20395;-71
2022/02/09 06:45:22;;;;;;;7.38;2.50;;;;;;;7.75;80.94;101453.91;5069917;28;20040;-71
2022/02/09 06:47:47;;;;;;;4.72;2.60;;;;;;;7.95;80.14;101483.84;5068926;28;20032;-70
2022/02/09 06:50:23;;;;;;;4.32;2.83;;;;;;;7.77;81.04;101466.22;5069513;28;20037;-71
2022/02/09 06:53:00;;;;;;;6.47;2.60;;;;;;;7.92;80.93;101483.16;5069484;28;20032;-71
2022/02/09 06:55:26;;;;;;;4.05;2.35;;;;;;;7.87;81.83;101483.41;5068890;28;20025;-70
2022/02/09 07:00:22;;;;;;;4.43;2.05;;;;;;;8.07;80.93;101490.28;5069936;28;20028;-71
2022/02/09 07:02:48;;;;;;;4.22;2.40;;;;;;;8.13;80.92;101484.56;5068737;28;20750;-71
2022/02/09 07:05:15;;;;;;;2.42;1.90;;;;;;;8.18;80.77;101487.81;5068495;28;20059;-70
2022/02/09 07:07:42;;;;;;;3.25;1.98;;;;;;;8.30;80.15;101500.50;5069574;28;20078;-69
2022/02/09 07:10:09;;;;;;;4.00;2.60;;;;;;;8.34;80.16;101496.69;5070282;28;20035;-70
2022/02/09 07:12:34;;;;;;;4.25;2.10;;;;;;;8.58;78.77;101495.22;5070438;28;20108;-68
2022/02/09 07:15:00;;;;;;;4.13;3.13;;;;;;;8.55;79.47;101495.41;5070191;28;20112;-69
2022/02/09 07:17:27;;;;;;;5.43;2.83;;;;;;;8.37;79.48;101485.81;5069568;28;20024;-69
2022/02/09 07:20:18;;;;;;;2.88;2.33;;;;;;;8.59;79.22;101519.19;5069634;28;20123;-67
2022/02/09 07:22:40;;;;;;;5.15;2.28;;;;;;;8.83;77.86;101506.09;5069298;28;20559;-67
2022/02/09 07:25:16;;;;;;;5.05;2.20;;;;;;;8.90;77.66;101507.47;5069553;28;20056;-68
2022/02/09 07:27:52;;;;;;;4.85;2.25;;;;;;;8.84;78.18;101521.22;5069609;28;20082;-68
2022/02/09 07:30:23;;;;;;;5.47;2.40;;;;;;;8.92;77.56;101524.28;5068104;28;20028;-68
2022/02/09 07:32:53;;;;;;;8.70;2.55;;;;;;;8.96;77.61;101523.13;5069354;28;20040;-68
2022/02/09 07:35:19;;;;;;;4.65;2.47;;;;;;;9.11;77.16;101514.16;5069427;28;20039;-68
2022/02/09 07:37:44;;;;;;;3.08;2.22;;;;;;;9.12;76.59;101526.56;5069218;28;20380;-68
2022/02/09 07:40:11;;;;;;;3.67;2.42;;;;;;;9.02;77.38;101517.41;5067779;28;20048;-68
2022/02/09 07:43:03;;;;;;;3.70;2.10;;;;;;;9.08;76.80;101525.03;5069222;28;20188;-67
2022/02/09 07:45:47;;;;;;;5.53;2.50;;;;;;;9.09;77.22;101510.69;5068704;28;20039;-68
2022/02/09 07:48:40;;;;;;;6.50;2.40;;;;;;;9.21;75.94;101502.78;5067944;28;20480;-67
2022/02/09 07:51:37;;;;;;;4.30;2.47;;;;;;;9.27;76.43;101513.09;5067809;28;20476;-68
2022/02/09 07:54:01;;;;;;;5.28;2.22;;;;;;;9.42;75.46;101508.59;5068008;28;20089;-68
2022/02/09 07:56:29;;;;;;;4.88;2.80;;;;;;;9.39;76.28;101516.81;5067932;28;20119;-67
2022/02/09 07:58:55;;;;;;;4.97;2.53;;;;;;;9.55;74.96;101519.34;5066582;28;20028;-68
2022/02/09 08:01:22;;;;;;;8.10;3.03;;;;;;;9.80;73.25;101516.81;5068935;28;20060;-67
2022/02/09 08:03:48;;;;;;;4.90;2.25;;;;;;;9.69;73.91;101513.94;5067931;28;20028;-70
2022/02/09 08:06:13;;;;;;;4.20;2.35;;;;;;;9.78;73.19;101516.91;5069281;28;20373;-69
2022/02/09 08:08:41;;;;;;;4.45;2.50;;;;;;;9.70;73.97;101513.84;5069064;28;20090;-70
2022/02/09 08:29:58;;;;;;;5.13;3.10;;;;;;;9.98;72.44;101510.22;5068547;28;20094;-70
2022/02/09 08:34:57;;;;;;;4.88;2.67;;;;;;;9.95;73.38;101524.69;5069120;28;20028;-69
2022/02/09 08:37:23;;;;;;;3.60;2.60;;;;;;;9.89;73.52;101519.72;5067738;28;20036;-70
2022/02/09 08:39:50;;;;;;;5.13;3.30;;;;;;;10.01;72.34;101512.69;5068599;28;20094;-70
2022/02/09 08:42:17;;;;;;;4.55;2.65;;;;;;;9.89;73.49;101506.34;5069116;28;20130;-70
2022/02/09 08:44:42;;;;;;;4.75;2.03;;;;;;;10.19;71.55;101517.72;5066393;28;20025;-70
2022/02/09 08:47:08;;;;;;;3.35;1.90;;;;;;;10.30;70.72;101507.16;5068258;28;20051;-69
2022/02/09 08:49:34;;;;;;;2.85;2.25;;;;;;;10.48;70.22;101526.50;5068889;28;20027;-70
2022/02/09 08:52:00;;;;;;;3.17;2.30;;;;;;;10.41;70.87;101530.53;5067595;28;20035;-70
2022/02/09 08:54:27;;;;;;;2.50;2.03;;;;;;;10.33;71.48;101531.06;5068698;28;20024;-69
2022/02/09 08:56:54;;;;;;;3.47;2.47;;;;;;;10.30;71.70;101527.72;5068520;28;20036;-70
2022/02/09 08:59:26;;;;;;;4.25;2.10;;;;;;;10.48;70.49;101521.97;5066280;28;20426;-69
2022/02/09 09:01:57;;;;;;;3.72;2.25;;;;;;;10.52;69.99;101517.25;5066440;28;20038;-71
2022/02/09 09:04:29;;;;;;;2.28;2.08;;;;;;;10.80;68.38;101525.13;5069294;28;20119;-71
2022/02/09 09:06:55;;;;;;;4.47;2.92;;;;;;;10.75;69.10;101524.59;5068191;28;20099;-70
2022/02/09 09:09:26;;;;;;;4.85;3.38;;;;;;;10.67;69.16;101502.78;5068314;28;20442;-71
2022/02/09 09:58:07;;;;;;;3.35;2.17;;;;;;;11.72;64.21;101540.81;5071339;28;20040;-68
2022/02/09 10:03:31;;;;;;;2.50;1.75;;;;;;;11.73;64.65;101552.44;5071221;28;20438;-68
2022/02/09 10:34:07;;;;;;;4.38;1.80;;;;;;;13.13;58.66;101526.34;5070120;28;20090;-68
2022/02/09 10:36:50;;;;;;;4.35;1.92;;;;;;;12.94;59.17;101507.19;5069257;28;20191;-68
2022/02/09 10:39:21;;;;;;;3.78;2.22;;;;;;;12.96;58.55;101511.47;5070357;28;20033;-67
2022/02/09 10:42:11;;;;;;;1.83;1.52;;;;;;;13.10;57.80;101510.41;5070382;28;20024;-68
2022/02/09 10:44:47;;;;;;;2.50;1.90;;;;;;;12.98;58.60;101492.50;5069421;28;20062;-68
2022/02/09 10:47:30;;;;;;;1.80;1.60;;;;;;;13.03;58.60;101506.50;5070240;28;20035;-70
2022/02/09 10:50:12;;;;;;;3.10;1.77;;;;;;;12.97;58.45;101490.78;5070981;28;20028;-69
2022/02/09 10:52:46;;;;;;;3.22;2.03;;;;;;;13.15;57.84;101487.50;5067691;28;20032;-70
2022/02/09 10:55:28;;;;;;;;;;;;;;;13.28;57.33;101490.06;5070892;28;20591;-69
2022/02/09 10:57:54;;;;;;;4.07;1.77;;;;;;;13.10;58.26;101499.63;5069145;28;19912;-70
2022/02/09 11:00:21;;;;;;;2.75;1.85;;;;;;;13.28;57.81;101508.94;5070142;28;20032;-69
2022/02/09 11:02:50;;;;;;;2.65;1.63;;;;;;;13.11;57.85;101493.25;5070373;28;20025;-68
2022/02/09 11:05:19;;;;;;;1.95;1.52;;;;;;;13.11;58.22;101507.59;5070554;28;20025;-68
2022/02/09 11:07:45;;;;;;;4.03;1.85;;;;;;;13.06;58.38;101496.31;5068737;28;20032;-69
2022/02/09 11:10:11;;;;;;;3.95;1.92;;;;;;;13.20;57.90;101492.53;5068758;28;20028;-69
2022/02/09 11:12:37;;;;;;;2.90;1.60;;;;;;;13.07;57.90;101471.13;5067810;28;20070;-70
2022/02/09 11:15:05;;;;;;;2.13;1.75;;;;;;;12.99;58.03;101470.84;5069982;28;20024;-69
2022/02/09 11:17:32;;;;;;;2.40;1.80;;;;;;;13.09;58.21;101490.69;5068309;28;20017;-69
2022/02/09 11:19:58;;;;;;;2.53;2.03;;;;;;;13.25;57.65;101490.31;5070030;28;20456;-69
2022/02/09 11:22:27;;;;;;;3.03;1.90;;;;;;;13.21;58.31;101480.78;5067405;28;20067;-69
2022/02/09 11:25:13;;;;;;;2.75;1.98;;;;;;;13.23;57.36;101481.50;5069516;28;20024;-69
2022/02/09 11:27:46;;;;;;;4.22;1.90;;;;;;;13.14;58.16;101479.56;5068615;28;20032;-69
2022/02/09 11:30:28;;;;;;;2.20;1.20;;;;;;;13.25;57.66;101482.22;5068331;28;20035;-69
2022/02/09 11:33:26;;;;;;;4.80;1.90;;;;;;;13.40;57.35;101470.22;5067728;28;20115;-70
2022/02/09 11:36:04;;;;;;;1.58;1.30;;;;;;;13.26;57.79;101475.88;5068049;28;20044;-69
2022/02/09 11:38:39;;;;;;;1.70;1.42;;;;;;;13.10;58.07;101456.53;5068221;28;20036;-68
2022/02/09 11:41:18;;;;;;;2.35;1.25;;;;;;;13.25;58.20;101472.31;5069641;28;20086;-68
2022/02/09 11:43:57;;;;;;;1.98;1.25;;;;;;;13.27;58.07;101467.69;5069653;28;20361;-69
2022/02/09 12:19:09;;;;;;;2.10;1.77;;;;;;;13.35;57.74;101461.69;5068148;28;20068;-67
2022/02/09 12:24:23;;;;;;;7.47;2.17;;;;;;;13.59;57.04;101456.97;5068813;28;20032;-68
2022/02/09 12:26:52;;;;;;;5.53;1.77;;;;;;;13.54;56.93;101445.69;5067070;28;20466;-69
2022/02/09 12:29:19;;;;;;;4.13;1.90;;;;;;;13.56;56.50;101438.34;5068662;28;20483;-69
2022/02/09 12:31:44;;;;;;;1.63;1.40;;;;;;;13.54;56.56;101441.16;5066824;28;20036;-69
2022/02/09 12:34:10;;;;;;;3.20;1.83;;;;;;;13.87;55.91;101451.00;5067315;28;20114;-69
2022/02/09 12:36:36;;;;;;;4.38;2.38;;;;;;;13.74;55.77;101447.63;5068102;28;20063;-69
2022/02/09 12:39:05;;;;;;;2.80;1.88;;;;;;;13.68;55.92;101438.16;5068555;28;20225;-70
2022/02/09 12:41:31;;;;;;;2.30;1.73;;;;;;;13.65;56.75;101445.69;5066919;28;20047;-69
2022/02/09 12:44:07;;;;;;;3.35;1.50;;;;;;;13.75;56.40;101449.31;5068551;28;20028;-69
2022/02/09 12:46:37;;;;;;;2.38;1.50;;;;;;;13.66;56.24;101450.94;5068172;28;20062;-69
2022/02/09 12:49:08;;;;;;;4.55;1.67;;;;;;;13.81;56.01;101450.63;5068545;28;20081;-69
2022/02/09 12:51:34;;;;;;;2.28;1.92;;;;;;;13.72;55.67;101441.47;5065748;28;20107;-69
2022/02/09 12:54:00;;;;;;;3.65;1.95;;;;;;;13.67;56.20;101441.00;5067050;28;20025;-69
2022/02/09 12:56:30;;;;;;;2.75;1.55;;;;;;;13.66;56.14;101453.63;5068413;28;21084;-68
2022/02/09 12:59:10;;;;;;;1.70;1.55;;;;;;;13.69;55.88;101453.38;5067124;28;20031;-69
2022/02/09 13:01:53;;;;;;;2.17;1.65;;;;;;;13.76;55.52;101453.72;5068337;28;20037;-69
2022/02/09 13:04:39;;;;;;;2.58;1.70;;;;;;;13.98;55.12;101458.16;5068213;28;20040;-68
2022/02/09 13:07:12;;;;;;;5.45;1.98;;;;;;;13.90;55.30;101453.44;5067830;28;20111;-69
2022/02/09 13:09:39;;;;;;;2.65;1.70;;;;;;;14.01;54.80;101442.59;5067281;28;20071;-68
2022/02/09 13:12:06;;;;;;;1.98;1.65;;;;;;;13.97;54.64;101446.56;5067684;28;20044;-67
2022/02/09 13:14:40;;;;;;;1.42;1.02;;;;;;;13.88;55.00;101435.66;5068029;28;20035;-68
2022/02/09 14:52:31;;;;;;;8.90;2.33;;;;;;;13.65;56.08;101430.34;5070754;28;20048;-68
2022/02/09 14:57:34;;;;;;;4.35;1.95;;;;;;;13.56;56.65;101425.72;5070437;28;20055;-69
2022/02/09 15:07:55;;;;;;;2.20;1.42;;;;;;;13.34;57.09;101422.22;5070280;28;20098;-69
2022/02/09 15:10:37;;;;;;;3.58;1.65;;;;;;;13.37;56.64;101420.13;5067761;28;20079;-70
2022/02/09 15:13:25;;;;;;;4.95;1.95;;;;;;;13.29;57.46;101413.66;5070153;28;20024;-69
2022/02/09 15:21:21;;;;;;;7.70;1.92;;;;;;;13.13;58.18;101419.41;5069733;28;20067;-68
2022/02/09 15:23:49;;;;;;;9.95;5.30;;;;;;;13.10;57.87;101430.44;5070006;28;20123;-68
2022/02/09 15:26:17;;;;;;;7.22;4.97;;;;;;;12.93;58.43;101413.91;5070499;28;20039;-67
2022/02/09 15:28:42;;;;;;;10.27;2.90;;;;;;;12.94;58.47;101421.88;5069849;28;20032;-68
2022/02/09 15:31:19;;;;;;;8.75;3.30;;;;;;;13.02;58.73;101432.03;5069935;28;20046;-66
2022/02/09 15:33:49;;;;;;;9.20;2.33;;;;;;;12.92;59.24;101425.66;5069448;28;20028;-68
2022/02/09 15:36:18;;;;;;;3.58;2.42;;;;;;;12.85;58.58;101427.13;5069870;28;20033;-67
2022/02/09 15:38:47;;;;;;;3.70;2.58;;;;;;;12.71;59.22;101432.75;5069372;28;20025;-66
2022/02/09 15:41:34;;;;;;;5.00;3.00;;;;;;;12.69;59.78;101442.78;5069514;28;20024;-66
2022/02/09 16:05:38;;;;;;;4.65;2.03;;;;;;;12.17;60.36;101445.97;5066209;28;20072;-67
2022/02/09 16:21:59;;;;;;;12.00;4.28;;;;;;;11.28;64.72;101462.56;5046431;28;20055;-66
2022/02/09 16:24:54;;;;;;;13.13;4.47;;;;;;;11.15;65.15;101467.97;5067436;28;20403;-67
2022/02/09 16:46:21;;;;;;;16.15;4.78;;;;;;;10.27;69.65;101475.16;5067182;28;20039;-66
2022/02/09 16:48:56;;;;;;;12.73;5.35;;;;;;;10.05;70.42;101449.88;5066869;28;20044;-66
2022/02/09 16:51:23;;;;;;;10.15;4.50;;;;;;;10.08;70.29;101471.16;5066267;28;20105;-67
2022/02/09 17:08:22;;;;;;;14.82;6.53;;;;;;;10.00;70.71;101474.31;5066997;28;20032;-66
2022/02/09 17:20:50;;;;;;;15.50;8.30;;;;;;;9.30;72.81;101474.56;5066773;28;20530;-68
2022/02/09 17:23:16;;;;;;;19.73;8.30;;;;;;;9.19;73.34;101471.69;5066685;28;20461;-67
2022/02/09 17:25:42;;;;;;;27.45;10.88;;;;;;;9.05;74.84;101467.22;5065200;28;20115;-68
2022/02/09 17:28:10;;;;;;;32.10;10.10;;;;;;;9.05;73.93;101474.38;5066554;28;20036;-67
2022/02/09 17:33:27;;;;;;;24.88;9.82;;;;;;;8.90;74.88;101486.91;5059915;28;20116;-67
2022/02/09 17:36:04;;;;;;;17.38;9.77;;;;;;;8.82;75.30;101474.97;5065252;28;20115;-68
2022/02/09 17:57:45;;;;;;;22.67;10.35;;;;;;;8.16;78.33;101505.78;5063719;28;20037;-67
2022/02/09 18:00:16;;;;;;;33.30;11.27;;;;;;;8.04;78.27;101498.47;5064773;28;20463;-67
2022/02/09 18:02:50;;;;;;;21.70;10.70;;;;;;;7.97;78.95;101495.28;5066936;28;20499;-67
2022/02/09 18:07:51;;;;;;;23.95;11.32;;;;;;;7.85;79.86;101497.81;5068326;28;20115;-67
2022/02/09 18:15:49;;;;;;;25.90;11.40;;;;;;;7.59;79.60;101485.09;5066933;28;20085;-67
2022/02/09 18:29:14;;;;;;;30.75;15.57;;;;;;;7.18;81.98;101467.88;5067877;28;20036;-67
2022/02/09 18:45:02;;;;;;;36.85;18.20;;;;;;;6.88;82.76;101489.97;5068120;28;20048;-67
2022/02/09 19:03:37;;;;;;;29.20;17.00;;;;;;;6.42;83.27;101488.00;5067470;28;20117;-67
2022/02/09 19:06:17;;;;;;;31.27;17.70;;;;;;;6.45;83.88;101506.50;5064615;28;20032;-67
2022/02/09 19:14:08;;;;;;;33.10;16.40;;;;;;;6.33;84.96;101492.97;5065938;28;20040;-67
2022/02/09 19:14:48;;;;;;;36.70;18.48;;;;;;;6.20;84.92;101487.41;5067864;28;20498;-70
2022/02/09 19:20:43;;;;;;;36.63;18.60;;;;;;;6.01;85.80;101462.66;5069180;28;20131;-70
2022/02/09 19:33:13;;;;;;;38.40;19.98;;;;;;;6.02;87.73;101485.69;5068149;28;20052;-70
2022/02/09 19:49:06;;;;;;;38.50;22.80;;;;;;;5.71;89.92;101457.97;5068622;28;20469;-70
2022/02/09 19:56:29;;;;;;;36.42;20.65;;;;;;;5.78;90.63;101484.22;5068484;28;20021;-70
2022/02/09 20:01:27;;;;;;;36.85;21.08;;;;;;;5.77;89.84;101486.97;5066048;28;20056;-69
2022/02/09 20:03:52;;;;;;;30.98;19.13;;;;;;;5.65;90.33;101469.81;5066240;28;20110;-70
2022/02/09 20:06:18;;;;;;;36.47;20.23;;;;;;;5.69;91.29;101476.69;5065568;28;20032;-70
2022/02/09 20:08:44;;;;;;;34.53;18.05;;;;;;;5.71;91.75;101480.13;5067701;28;20052;-70
2022/02/09 20:11:15;;;;;;;38.10;18.63;;;;;;;5.65;92.41;101469.81;5067029;28;20096;-70
2022/02/09 20:13:41;;;;;;;41.90;22.52;;;;;;;5.73;93.02;101477.38;5064430;28;20044;-70
2022/02/09 20:16:13;;;;;;;44.67;25.20;;;;;;;5.52;93.14;101438.53;5067194;28;20488;-69
2022/02/09 20:18:42;;;;;;;59.85;30.02;;;;;;;5.75;93.80;101472.84;5064649;28;20032;-70
2022/02/09 20:21:07;;;;;;;61.42;31.35;;;;;;;5.78;93.84;101473.59;5067476;28;20123;-69
2022/02/09 20:23:34;;;;;;;55.17;28.90;;;;;;;5.78;94.38;101473.59;5067768;28;20237;-70
2022/02/09 20:26:03;;;;;;;63.35;32.38;;;;;;;5.80;94.38;101487.66;5067077;28;20028;-69
2022/02/09 20:28:29;;;;;;;58.97;31.02;;;;;;;5.70;94.11;101457.13;5066636;28;20055;-69
2022/02/09 20:31:00;;;;;;;60.20;32.45;;;;;;;5.82;94.71;101483.16;5068476;28;20052;-69
2022/02/09 20:33:33;;;;;;;63.45;33.03;;;;;;;5.82;93.91;101479.63;5066848;28;20028;-70
2022/02/09 20:35:59;;;;;;;63.95;34.42;;;;;;;5.80;94.34;101477.00;5069105;28;20055;-70
2022/02/09 20:38:28;;;;;;;61.05;32.75;;;;;;;5.66;93.76;101452.00;5068698;28;20029;-70
2022/02/09 20:41:00;;;;;;;60.97;31.10;;;;;;;5.71;93.23;101466.81;5068873;28;20036;-70
2022/02/09 20:43:26;;;;;;;57.22;28.10;;;;;;;5.71;92.83;101466.81;5066542;28;20058;-70
2022/02/09 20:45:56;;;;;;;59.97;29.83;;;;;;;5.71;92.99;101482.78;5065923;28;20067;-70
2022/02/09 20:48:26;;;;;;;55.75;29.10;;;;;;;5.65;92.87;101479.56;5067587;28;20654;-70
2022/02/09 20:51:04;;;;;;;60.42;31.52;;;;;;;5.58;93.07;101465.69;5068067;28;20099;-70
2022/02/09 20:53:30;;;;;;;61.78;30.60;;;;;;;5.51;93.12;101466.94;5070625;28;20569;-67
2022/02/09 20:55:57;;;;;;;61.42;29.65;;;;;;;5.51;92.13;101468.75;5068235;28;20062;-67
2022/02/09 20:58:23;;;;;;;52.70;29.50;;;;;;;5.42;91.91;101463.88;5067910;28;20020;-67
2022/02/09 21:00:56;;;;;;;59.58;30.75;;;;;;;5.35;91.88;101467.78;5067795;28;20037;-67
2022/02/09 21:11:21;;;;;;;63.13;29.65;;;;;;;5.09;91.06;101470.81;5066805;28;20079;-67
2022/02/09 21:14:06;;;;;;;55.58;29.75;;;;;;;5.05;90.63;101466.53;5066364;28;20024;-67
2022/02/09 21:20:15;;;;;;;52.45;29.45;;;;;;;4.78;89.24;101466.03;5064844;28;21432;-67
2022/02/09 21:54:27;;;;;;;57.97;29.25;;;;;;;3.86;92.49;101479.88;5070820;28;20032;-67
2022/02/09 21:56:58;;;;;;;61.60;30.35;;;;;;;3.87;92.82;101486.94;5069511;28;20025;-71
2022/02/09 22:21:21;;;;;;;54.83;29.17;;;;;;;3.52;91.20;101490.16;5071706;28;20075;-71
2022/02/09 22:26:45;;;;;;;55.10;31.52;;;;;;;3.37;90.99;101485.47;5071783;28;20029;-71
2022/02/09 22:48:01;;;;;;;63.55;33.65;;;;;;;2.96;91.12;101483.59;5070606;28;20123;-71
2022/02/09 22:50:41;;;;;;;55.75;31.58;;;;;;;2.83;90.78;101463.78;5069540;28;20048;-71
2022/02/09 22:55:50;;;;;;;59.40;31.50;;;;;;;2.80;91.78;101472.69;5071385;28;20636;-71
2022/02/09 22:58:16;;;;;;;56.58;31.10;;;;;;;2.79;91.38;101470.09;5071800;28;20036;-71
2022/02/09 23:03:53;;;;;;;63.55;32.63;;;;;;;2.74;91.44;101459.66;5072009;28;20032;-72
2022/02/09 23:06:27;;;;;;;61.33;31.52;;;;;;;2.66;90.78;101451.16;5071089;28;20463;-71
